Terminal Aerodrome Forecast
Issued by NWS Bismarck, ND

Home | Current Version | Previous Version | Text Only | Print | Product List | Glossary Off
Versions: 1 2 3 4 5 6 7 8 9 10 11 12

727
FTUS43 KBIS 271139
TAFBIS
TAF
KBIS 271139Z 2712/2812 15004KT P6SM VCSH SCT025 SCT035 SCT080
      TEMPO 2712/2714 BKN080
     FM271400 17004KT P6SM SCT035 SCT050
     FM272000 22012KT P6SM SCT060
     FM280300 13005KT P6SM SCT250=

USA.gov is the U.S. government's official web portal to all federal, state and local government web resources and services.